createdAt,value
2019-03-25T00:03:47.411Z,5.27
2019-03-25T00:09:13.523Z,5.90
2019-03-25T00:14:38.102Z,5.23
2019-03-25T00:20:02.673Z,5.57
2019-03-25T00:25:27.911Z,5.07
2019-03-25T00:30:52.601Z,5.27
2019-03-25T00:36:16.949Z,6.73
2019-03-25T00:41:41.820Z,5.77
2019-03-25T00:47:06.745Z,5.40
2019-03-25T00:52:30.943Z,4.80
2019-03-25T00:57:56.397Z,5.60
2019-03-25T01:03:21.032Z,5.53
2019-03-25T01:08:46.309Z,4.97
2019-03-25T01:14:10.584Z,5.57
2019-03-25T01:19:35.644Z,5.97
2019-03-25T01:25:02.355Z,5.97
2019-03-25T01:30:27.820Z,5.47
2019-03-25T01:35:52.773Z,4.33
2019-03-25T01:41:17.824Z,5.47
2019-03-25T01:46:43.266Z,4.37
2019-03-25T01:52:08.524Z,5.20
2019-03-25T01:57:33.994Z,5.33
2019-03-25T02:02:59.169Z,5.27
2019-03-25T02:08:24.062Z,5.30
2019-03-25T02:13:48.466Z,5.20
2019-03-25T02:19:12.788Z,5.10
2019-03-25T02:24:37.818Z,6.13
2019-03-25T02:30:02.093Z,5.00
2019-03-25T02:35:26.552Z,5.40
2019-03-25T02:40:52.236Z,6.03
2019-03-25T02:46:17.162Z,4.93
2019-03-25T02:51:42.584Z,5.03
2019-03-25T02:57:07.516Z,5.57
2019-03-25T03:02:32.435Z,5.40
2019-03-25T03:07:57.966Z,6.03
2019-03-25T03:13:23.248Z,5.40
2019-03-25T03:18:47.464Z,4.47
2019-03-25T03:24:12.745Z,5.40
2019-03-25T03:29:37.202Z,5.30
2019-03-25T03:35:02.182Z,5.00
2019-03-25T03:40:26.965Z,5.40
2019-03-25T03:45:51.796Z,5.03
2019-03-25T03:51:16.745Z,5.07
2019-03-25T03:56:41.815Z,6.33
2019-03-25T04:02:06.551Z,4.93
2019-03-25T04:07:30.996Z,6.13
2019-03-25T04:12:55.956Z,5.33
2019-03-25T04:18:20.189Z,6.33
2019-03-25T04:23:46.434Z,5.87
2019-03-25T04:29:11.343Z,5.73
2019-03-25T04:34:36.682Z,5.90
2019-03-25T04:40:00.836Z,6.20
2019-03-25T04:45:26.582Z,6.53
2019-03-25T04:50:50.930Z,6.13
2019-03-25T04:56:15.951Z,5.90
2019-03-25T05:01:41.291Z,6.27
2019-03-25T05:07:05.463Z,7.27
2019-03-25T05:12:29.766Z,5.77
2019-03-25T05:17:55.015Z,6.17
2019-03-25T05:23:20.430Z,6.90
2019-03-25T05:28:45.001Z,5.97
2019-03-25T05:34:09.339Z,6.33
2019-03-25T05:39:34.644Z,6.60
2019-03-25T05:45:00.071Z,5.83
2019-03-25T05:50:25.290Z,5.73
2019-03-25T05:55:50.945Z,5.67
2019-03-25T06:01:15.726Z,5.87
2019-03-25T06:06:40.125Z,6.73
2019-03-25T06:12:04.510Z,8.10
2019-03-25T06:17:30.122Z,6.30
2019-03-25T06:22:55.230Z,7.17
2019-03-25T06:28:20.553Z,7.73
2019-03-25T06:33:45.065Z,7.80
2019-03-25T06:39:09.238Z,8.10
2019-03-25T06:44:33.737Z,10.03
2019-03-25T06:49:58.721Z,10.70
2019-03-25T06:55:24.291Z,9.57
2019-03-25T07:00:49.534Z,10.80
2019-03-25T07:06:14.896Z,11.63
2019-03-25T07:11:40.354Z,9.70
2019-03-25T07:17:05.183Z,11.50
2019-03-25T07:22:29.345Z,10.00
2019-03-25T07:27:54.679Z,13.27
2019-03-25T07:33:19.142Z,11.80
2019-03-25T07:38:44.304Z,12.23
2019-03-25T07:44:08.930Z,12.07
2019-03-25T07:49:33.801Z,12.27
2019-03-25T07:54:58.975Z,10.30
2019-03-25T08:00:24.447Z,13.47
2019-03-25T08:05:49.087Z,10.37
2019-03-25T08:11:13.533Z,9.03
2019-03-25T08:16:38.571Z,8.90
2019-03-25T08:22:03.802Z,8.47
2019-03-25T08:27:29.142Z,8.33
2019-03-25T08:32:54.385Z,9.20
2019-03-25T08:38:19.677Z,7.87
2019-03-25T08:43:44.994Z,8.70
2019-03-25T08:49:11.936Z,7.20
2019-03-25T08:54:37.820Z,6.57
2019-03-25T09:00:02.388Z,6.63
2019-03-25T09:05:28.574Z,5.40
2019-03-25T09:10:53.845Z,6.30
2019-03-25T09:16:18.780Z,5.77
2019-03-25T09:21:43.002Z,6.03
2019-03-25T09:27:07.936Z,4.83
2019-03-25T09:32:33.492Z,4.20
2019-03-25T09:37:58.699Z,3.57
2019-03-25T09:43:23.967Z,4.23
2019-03-25T09:48:49.157Z,3.20
2019-03-25T09:54:13.669Z,3.37
2019-03-25T09:59:38.639Z,3.20
2019-03-25T10:05:03.447Z,2.70
2019-03-25T10:10:28.678Z,2.57
2019-03-25T10:15:53.307Z,2.50
2019-03-25T10:21:18.554Z,2.20
2019-03-25T10:26:44.035Z,2.50
2019-03-25T10:32:08.703Z,3.13
2019-03-25T10:37:33.377Z,2.47
2019-03-25T10:42:57.679Z,3.50
2019-03-25T10:48:23.372Z,3.83
2019-03-25T10:53:47.624Z,3.37
2019-03-25T10:59:13.175Z,3.53
2019-03-25T11:04:38.449Z,3.40
2019-03-25T11:10:03.586Z,3.10
2019-03-25T11:15:28.006Z,2.50
2019-03-25T11:20:53.447Z,2.17
2019-03-25T11:26:17.936Z,2.70
2019-03-25T11:31:42.080Z,1.77
2019-03-25T11:37:07.313Z,2.13
2019-03-25T11:42:32.297Z,2.07
2019-03-25T11:47:57.090Z,1.80
2019-03-25T11:53:21.643Z,1.60
2019-03-25T11:58:46.284Z,1.50
2019-03-25T12:04:11.261Z,1.40
2019-03-25T12:09:36.444Z,1.90
2019-03-25T12:15:02.125Z,1.90
2019-03-25T12:20:27.301Z,1.93
2019-03-25T12:25:51.722Z,1.90
2019-03-25T12:31:17.248Z,1.55
2019-03-25T12:36:42.440Z,1.50
2019-03-25T12:42:07.153Z,1.93
2019-03-25T12:47:31.598Z,1.50
2019-03-25T12:52:56.769Z,1.77
2019-03-25T12:58:22.377Z,1.40
2019-03-25T13:03:47.229Z,1.95
2019-03-25T13:09:12.357Z,2.35
2019-03-25T13:14:36.738Z,1.77
2019-03-25T13:20:01.925Z,2.10
2019-03-25T13:25:26.963Z,2.83
2019-03-25T13:30:52.415Z,2.03
2019-03-25T13:36:17.408Z,2.40
2019-03-25T13:41:42.633Z,2.10
2019-03-25T13:47:07.521Z,1.80
2019-03-25T13:52:33.059Z,1.80
2019-03-25T13:57:58.060Z,1.93
2019-03-25T14:03:22.334Z,2.33
2019-03-25T14:08:47.682Z,1.97
2019-03-25T14:14:12.086Z,2.40
2019-03-25T14:19:37.064Z,2.03
2019-03-25T14:25:01.300Z,2.50
2019-03-25T14:30:26.187Z,2.57
2019-03-25T14:35:50.954Z,2.23
2019-03-25T14:41:16.531Z,1.77
2019-03-25T14:46:41.418Z,1.93
2019-03-25T14:52:05.682Z,1.80
2019-03-25T14:57:30.483Z,2.23
2019-03-25T15:02:54.915Z,1.90
2019-03-25T15:08:20.089Z,1.93
2019-03-25T15:13:44.286Z,2.00
2019-03-25T15:19:09.796Z,2.07
2019-03-25T15:24:34.340Z,2.60
2019-03-25T15:29:59.276Z,2.23
2019-03-25T15:35:23.660Z,2.20
2019-03-25T15:40:48.685Z,1.93
2019-03-25T15:46:14.053Z,2.10
2019-03-25T15:51:39.548Z,2.03
2019-03-25T15:57:04.615Z,1.67
2019-03-25T16:02:29.911Z,1.80
2019-03-25T16:07:54.971Z,2.43
2019-03-25T16:13:20.387Z,1.80
2019-03-25T16:18:45.753Z,2.67
2019-03-25T16:24:11.310Z,2.53
2019-03-25T16:29:36.577Z,2.37
2019-03-25T16:35:01.711Z,4.10
2019-03-25T16:40:26.697Z,2.23
2019-03-25T16:45:51.816Z,2.40
2019-03-25T16:51:16.218Z,2.03
2019-03-25T16:56:41.175Z,2.37
2019-03-25T17:02:07.215Z,2.47
2019-03-25T17:07:32.239Z,2.80
2019-03-25T17:12:56.826Z,2.43
2019-03-25T17:18:21.964Z,2.53
2019-03-25T17:23:46.780Z,3.20
2019-03-25T17:29:11.822Z,6.33
2019-03-25T17:34:36.822Z,3.07
2019-03-25T17:40:02.102Z,3.20
2019-03-25T17:45:27.582Z,3.40
2019-03-25T17:50:53.098Z,3.73
2019-03-25T17:56:17.512Z,3.33
2019-03-25T18:01:41.882Z,3.63
2019-03-25T18:07:07.102Z,4.40
2019-03-25T18:12:38.762Z,3.83
2019-03-25T18:17:57.291Z,3.77
2019-03-25T18:23:21.503Z,4.60
2019-03-25T18:28:47.023Z,4.03
2019-03-25T18:34:11.413Z,3.37
2019-03-25T18:39:36.756Z,4.40
2019-03-25T18:45:02.358Z,3.37
2019-03-25T18:50:27.366Z,3.40
2019-03-25T18:55:52.621Z,3.43
2019-03-25T19:01:17.685Z,2.70
2019-03-25T19:06:45.768Z,3.10
2019-03-25T19:12:11.063Z,3.00
2019-03-25T19:17:36.481Z,3.50
2019-03-25T19:23:01.743Z,3.07
2019-03-25T19:28:26.608Z,3.33
2019-03-25T19:33:51.216Z,3.30
2019-03-25T19:39:15.599Z,8.57
2019-03-25T19:44:39.939Z,3.43
2019-03-25T19:50:05.897Z,3.40
2019-03-25T19:55:30.951Z,2.97
2019-03-25T20:00:55.884Z,3.20
2019-03-25T20:06:26.072Z,3.80
2019-03-25T20:11:47.714Z,3.20
2019-03-25T20:17:12.128Z,3.53
2019-03-25T20:22:36.597Z,4.03
2019-03-25T20:28:01.681Z,4.07
2019-03-25T20:33:26.961Z,5.03
2019-03-25T20:38:52.367Z,5.13
2019-03-25T20:44:17.178Z,4.50
2019-03-25T20:49:42.305Z,6.07
2019-03-25T20:55:08.829Z,6.07
2019-03-25T21:00:48.052Z,5.33
2019-03-25T21:06:12.595Z,4.97
2019-03-25T21:11:37.337Z,5.93
2019-03-25T21:17:02.778Z,7.47
2019-03-25T21:22:27.837Z,4.80
2019-03-25T21:27:53.217Z,3.90
2019-03-25T21:33:18.311Z,4.87
2019-03-25T21:38:42.425Z,6.07
2019-03-25T21:44:06.914Z,5.80
2019-03-25T21:49:31.590Z,4.33
2019-03-25T21:54:57.979Z,4.40
2019-03-25T22:00:23.549Z,4.70
2019-03-25T22:05:47.858Z,5.47
2019-03-25T22:11:13.065Z,5.33
2019-03-25T22:16:38.329Z,4.50
2019-03-25T22:22:02.457Z,5.10
2019-03-25T22:27:27.956Z,5.07
2019-03-25T22:32:53.193Z,5.57
2019-03-25T22:38:18.180Z,6.03
2019-03-25T22:43:43.868Z,5.63
2019-03-25T22:49:09.178Z,4.83
2019-03-25T22:54:34.265Z,4.97
2019-03-25T22:59:59.760Z,5.57
2019-03-25T23:05:23.916Z,5.47
2019-03-25T23:10:48.009Z,5.87
2019-03-25T23:16:13.204Z,5.80
2019-03-25T23:21:38.399Z,6.50
2019-03-25T23:27:03.924Z,6.30
2019-03-25T23:32:28.306Z,7.23
2019-03-25T23:37:53.719Z,7.20
2019-03-25T23:43:18.442Z,6.30
2019-03-25T23:48:42.858Z,5.43
2019-03-25T23:54:14.862Z,6.00
2019-03-25T23:59:41.294Z,6.40
